createdAt,value
2022-12-16T00:01:59.613Z,48.45
2022-12-16T00:04:27.558Z,53.65
2022-12-16T00:06:55.525Z,49.53
2022-12-16T00:09:23.585Z,47.97
2022-12-16T00:11:51.551Z,47.78
2022-12-16T00:14:21.137Z,49.67
2022-12-16T00:16:49.331Z,41.08
2022-12-16T00:19:18.425Z,52.15
2022-12-16T00:21:46.302Z,43.40
2022-12-16T00:24:14.269Z,49.78
2022-12-16T00:26:42.149Z,45.83
2022-12-16T00:29:11.075Z,51.70
2022-12-16T00:31:40.594Z,49.63
2022-12-16T00:34:08.584Z,54.33
2022-12-16T00:36:36.469Z,57.15
2022-12-16T00:39:04.844Z,50.92
2022-12-16T00:41:32.758Z,50.40
2022-12-16T00:44:00.699Z,48.03
2022-12-16T00:46:28.539Z,51.92
2022-12-16T00:48:57.852Z,51.25
2022-12-16T00:51:25.747Z,48.92
2022-12-16T00:53:53.705Z,48.38
2022-12-16T00:56:22.121Z,56.72
2022-12-16T00:58:50.487Z,43.13
2022-12-16T01:01:18.499Z,50.38
2022-12-16T01:03:46.602Z,49.22
2022-12-16T01:06:18.065Z,53.30
2022-12-16T01:08:48.763Z,55.58
2022-12-16T01:11:18.044Z,52.53
2022-12-16T01:13:46.324Z,56.47
2022-12-16T01:16:15.378Z,54.47
2022-12-16T01:18:43.343Z,60.67
2022-12-16T01:21:14.121Z,56.97
2022-12-16T01:23:43.522Z,53.38
2022-12-16T01:26:16.812Z,55.47
2022-12-16T01:28:44.806Z,58.45
2022-12-16T01:31:13.025Z,53.83
2022-12-16T01:33:40.964Z,58.08
2022-12-16T01:36:09.862Z,58.05
2022-12-16T01:38:37.947Z,55.00
2022-12-16T01:41:07.251Z,47.30
2022-12-16T01:43:38.531Z,49.25
2022-12-16T01:46:10.327Z,52.50
2022-12-16T01:48:45.745Z,47.38
2022-12-16T01:51:19.561Z,46.45
2022-12-16T01:56:41.413Z,55.83
2022-12-16T01:59:10.133Z,57.35
2022-12-16T02:01:38.133Z,51.58
2022-12-16T02:04:06.200Z,50.20
2022-12-16T02:06:34.609Z,48.85
2022-12-16T02:09:07.115Z,46.00
2022-12-16T02:15:10.375Z,50.10
2022-12-16T02:17:46.724Z,48.35
2022-12-16T02:20:56.312Z,55.70
2022-12-16T02:23:55.333Z,55.15
2022-12-16T02:26:50.475Z,58.70
2022-12-16T02:29:41.693Z,46.38
2022-12-16T02:32:18.248Z,52.40
2022-12-16T02:34:55.492Z,47.30
2022-12-16T02:37:37.598Z,51.65
2022-12-16T02:40:12.514Z,48.08
2022-12-16T02:42:46.382Z,51.53
2022-12-16T02:48:05.439Z,52.22
2022-12-16T02:50:36.802Z,44.03
2022-12-16T02:53:06.223Z,54.92
2022-12-16T02:55:41.287Z,54.10
2022-12-16T02:58:18.835Z,50.15
2022-12-16T03:03:48.032Z,51.60
2022-12-16T03:06:18.942Z,51.95
2022-12-16T03:08:52.499Z,57.38
2022-12-16T03:11:20.866Z,51.38
2022-12-16T03:13:52.711Z,56.50
2022-12-16T03:16:24.074Z,55.40
2022-12-16T03:21:47.837Z,57.63
2022-12-16T03:24:16.259Z,49.13
2022-12-16T03:26:50.530Z,61.30
2022-12-16T03:29:25.418Z,50.72
2022-12-16T03:31:58.294Z,51.17
2022-12-16T03:37:26.433Z,52.78
2022-12-16T03:39:58.975Z,53.75
2022-12-16T03:42:27.865Z,54.97
2022-12-16T03:44:55.864Z,54.55
2022-12-16T03:47:26.373Z,43.22
2022-12-16T03:49:55.748Z,55.45
2022-12-16T03:55:09.888Z,55.35
2022-12-16T03:57:37.946Z,50.45
2022-12-16T04:00:07.025Z,55.70
2022-12-16T04:02:36.456Z,54.70
2022-12-16T04:05:06.559Z,57.72
2022-12-16T04:10:41.551Z,50.15
2022-12-16T04:13:28.224Z,50.20
2022-12-16T04:16:14.086Z,49.60
2022-12-16T04:19:00.347Z,51.70
2022-12-16T04:21:49.438Z,49.63
2022-12-16T04:27:23.939Z,59.55
2022-12-16T04:30:05.758Z,59.60
2022-12-16T04:32:54.362Z,52.75
2022-12-16T04:35:39.069Z,53.92
2022-12-16T04:38:26.023Z,52.67
2022-12-16T04:44:14.750Z,47.45
2022-12-16T04:47:00.176Z,52.67
2022-12-16T04:49:45.797Z,48.60
2022-12-16T04:52:31.743Z,50.30
2022-12-16T04:55:18.630Z,62.70
2022-12-16T05:01:10.373Z,44.75
2022-12-16T05:03:55.679Z,51.20
2022-12-16T05:06:41.349Z,59.97
2022-12-16T05:09:27.244Z,54.05
2022-12-16T05:12:13.864Z,44.05
2022-12-16T05:14:59.474Z,52.28
2022-12-16T05:17:44.879Z,46.53
2022-12-16T05:20:41.997Z,47.80
2022-12-16T05:23:29.759Z,49.47
2022-12-16T05:26:15.468Z,51.00
2022-12-16T05:29:02.407Z,52.55
2022-12-16T05:34:51.493Z,49.58
2022-12-16T05:37:37.068Z,53.00
2022-12-16T05:40:23.551Z,45.60
2022-12-16T05:43:14.923Z,42.28
2022-12-16T05:46:03.799Z,48.50
2022-12-16T05:48:49.760Z,43.20
2022-12-16T05:51:35.523Z,45.60
2022-12-16T05:54:20.813Z,43.78
2022-12-16T05:57:07.540Z,44.20
2022-12-16T05:59:53.011Z,40.85
2022-12-16T06:02:40.350Z,47.78
2022-12-16T06:05:26.394Z,45.88
2022-12-16T06:08:12.035Z,44.22
2022-12-16T06:10:57.579Z,50.88
2022-12-16T06:13:43.161Z,55.13
2022-12-16T06:16:28.719Z,51.67
2022-12-16T06:19:15.459Z,43.97
2022-12-16T06:22:00.836Z,50.25
2022-12-16T06:24:46.154Z,52.72
2022-12-16T06:27:31.482Z,59.17
2022-12-16T06:30:16.917Z,51.10
2022-12-16T06:33:02.715Z,53.60
2022-12-16T06:35:49.442Z,51.60
2022-12-16T06:38:34.673Z,59.90
2022-12-16T06:41:20.232Z,58.97
2022-12-16T06:44:05.762Z,52.60
2022-12-16T06:46:51.548Z,53.05
2022-12-16T06:49:36.811Z,52.80
2022-12-16T06:52:23.499Z,51.17
2022-12-16T06:55:09.200Z,54.70
2022-12-16T06:57:54.786Z,52.45
2022-12-16T07:00:40.438Z,53.85
2022-12-16T07:03:25.703Z,56.60
2022-12-16T07:06:11.862Z,54.53
2022-12-16T07:08:58.526Z,51.55
2022-12-16T07:11:44.055Z,66.25
2022-12-16T07:14:29.330Z,62.25
2022-12-16T07:17:17.243Z,58.95
2022-12-16T07:20:03.009Z,61.55
2022-12-16T07:22:52.232Z,56.53
2022-12-16T07:25:48.048Z,55.67
2022-12-16T07:28:44.918Z,57.63
2022-12-16T07:31:30.635Z,59.80
2022-12-16T07:34:16.157Z,61.85
2022-12-16T07:37:01.598Z,50.35
2022-12-16T07:39:52.797Z,59.67
2022-12-16T07:42:41.840Z,55.53
2022-12-16T07:45:28.417Z,67.32
2022-12-16T07:48:14.515Z,62.78
2022-12-16T07:51:00.115Z,57.78
2022-12-16T07:53:46.328Z,53.53
2022-12-16T07:56:31.873Z,57.03
2022-12-16T07:59:18.564Z,63.20
2022-12-16T08:02:04.189Z,61.85
2022-12-16T08:04:49.536Z,63.33
2022-12-16T08:07:35.143Z,56.90
2022-12-16T08:10:20.675Z,64.63
2022-12-16T08:13:06.142Z,57.30
2022-12-16T08:15:52.977Z,58.60
2022-12-16T08:18:38.398Z,63.22
2022-12-16T08:21:32.330Z,54.53
2022-12-16T08:24:17.592Z,57.58
2022-12-16T08:27:02.771Z,58.95
2022-12-16T08:29:48.258Z,52.28
2022-12-16T08:32:31.944Z,52.60
2022-12-16T08:35:19.521Z,55.47
2022-12-16T08:38:09.005Z,52.47
2022-12-16T08:41:00.191Z,56.13
2022-12-16T08:43:45.902Z,60.15
2022-12-16T08:46:31.586Z,51.85
2022-12-16T08:49:18.400Z,60.97
2022-12-16T08:52:03.748Z,54.35
2022-12-16T08:54:49.469Z,57.20
2022-12-16T08:57:35.729Z,55.38
2022-12-16T09:00:22.310Z,51.47
2022-12-16T09:03:11.733Z,61.58
2022-12-16T09:05:58.934Z,57.75
2022-12-16T09:08:44.207Z,62.72
2022-12-16T09:11:29.717Z,59.50
2022-12-16T09:14:15.390Z,60.05
2022-12-16T09:17:00.814Z,69.78
2022-12-16T09:19:46.260Z,55.72
2022-12-16T09:22:33.035Z,56.67
2022-12-16T09:25:18.445Z,52.42
2022-12-16T09:28:06.971Z,52.63
2022-12-16T09:30:52.693Z,65.88
2022-12-16T09:33:38.041Z,55.53
2022-12-16T09:36:23.836Z,53.85
2022-12-16T09:39:10.534Z,60.47
2022-12-16T09:42:01.090Z,49.58
2022-12-16T09:45:01.889Z,53.35
2022-12-16T09:48:03.216Z,46.67
2022-12-16T09:50:50.096Z,55.35
2022-12-16T09:53:40.138Z,51.75
2022-12-16T09:56:37.908Z,56.03
2022-12-16T09:59:29.851Z,51.72
2022-12-16T10:02:15.684Z,52.65
2022-12-16T10:05:03.116Z,56.50
2022-12-16T10:07:54.530Z,53.10
2022-12-16T10:10:49.385Z,58.27
2022-12-16T10:13:43.050Z,53.23
2022-12-16T10:16:37.956Z,57.40
2022-12-16T10:19:30.815Z,56.30
2022-12-16T10:22:29.987Z,54.00
2022-12-16T10:25:25.165Z,56.95
2022-12-16T10:28:18.990Z,61.25
2022-12-16T10:31:05.892Z,62.70
2022-12-16T10:33:51.516Z,54.73
2022-12-16T10:36:40.908Z,56.70
2022-12-16T10:39:46.383Z,65.10
2022-12-16T10:42:39.722Z,60.20
2022-12-16T10:45:35.909Z,59.63
2022-12-16T10:48:23.261Z,64.30
2022-12-16T10:51:09.094Z,61.47
2022-12-16T10:53:55.799Z,54.73
2022-12-16T10:57:08.557Z,58.00
2022-12-16T10:59:55.920Z,54.30
2022-12-16T11:02:44.350Z,49.47
2022-12-16T11:05:59.306Z,54.43
2022-12-16T11:08:47.312Z,53.53
2022-12-16T11:11:39.261Z,47.77
2022-12-16T11:14:39.121Z,50.83
2022-12-16T11:17:37.299Z,54.60
2022-12-16T11:20:30.961Z,50.00
2022-12-16T11:23:58.815Z,50.47
2022-12-16T11:26:44.358Z,47.23
2022-12-16T11:29:32.072Z,50.87
2022-12-16T11:32:22.102Z,47.00
2022-12-16T11:35:14.299Z,48.30
2022-12-16T11:38:01.835Z,42.00
2022-12-16T11:40:50.170Z,47.67
2022-12-16T11:43:37.843Z,46.47
2022-12-16T11:46:28.444Z,48.50
2022-12-16T11:49:23.451Z,44.67
2022-12-16T11:52:35.802Z,41.63
2022-12-16T11:56:03.355Z,40.53
2022-12-16T11:58:47.330Z,39.43
2022-12-16T12:01:45.204Z,42.97
2022-12-16T12:04:32.282Z,47.03
2022-12-16T12:07:46.215Z,47.73
2022-12-16T12:11:02.401Z,47.27
2022-12-16T12:14:08.917Z,53.03
2022-12-16T12:17:08.137Z,40.90
2022-12-16T12:20:02.325Z,39.73
2022-12-16T12:22:53.972Z,39.37
2022-12-16T12:25:46.468Z,42.03
2022-12-16T12:28:41.860Z,33.80
2022-12-16T12:31:39.331Z,37.87
2022-12-16T12:34:31.791Z,38.07
2022-12-16T12:37:27.083Z,37.03
2022-12-16T12:40:21.113Z,40.40
2022-12-16T12:43:10.742Z,35.97
2022-12-16T12:46:07.901Z,32.47
2022-12-16T12:49:00.430Z,33.33
2022-12-16T12:51:52.357Z,28.57
2022-12-16T12:54:49.318Z,32.10
2022-12-16T12:57:38.123Z,32.47
2022-12-16T13:00:31.196Z,30.13
2022-12-16T13:03:24.052Z,30.57
2022-12-16T13:06:12.139Z,34.13
2022-12-16T13:09:04.447Z,34.57
2022-12-16T13:11:49.972Z,35.07
2022-12-16T13:15:12.111Z,36.37
2022-12-16T13:18:38.566Z,31.87
2022-12-16T13:22:04.289Z,36.50
2022-12-16T13:24:56.750Z,45.30
2022-12-16T13:27:43.263Z,41.50
2022-12-16T13:30:43.222Z,44.17
2022-12-16T13:33:46.806Z,45.60
2022-12-16T13:36:36.441Z,44.22
2022-12-16T13:39:48.397Z,43.77
2022-12-16T13:42:53.954Z,38.87
2022-12-16T13:45:51.307Z,49.13
2022-12-16T13:48:49.324Z,43.10
2022-12-16T13:52:26.814Z,44.80
2022-12-16T13:55:31.879Z,42.20
2022-12-16T13:58:22.561Z,37.17
2022-12-16T14:01:19.828Z,40.22
2022-12-16T14:04:07.610Z,38.08
2022-12-16T14:06:56.161Z,39.55
2022-12-16T14:09:51.823Z,38.00
2022-12-16T14:13:02.183Z,35.58
2022-12-16T14:15:52.299Z,37.33
2022-12-16T14:18:49.419Z,40.05
2022-12-16T14:21:39.887Z,39.33
2022-12-16T14:24:31.027Z,40.53
2022-12-16T14:27:23.120Z,44.20
2022-12-16T14:30:10.225Z,39.50
2022-12-16T14:32:55.556Z,34.05
2022-12-16T14:35:42.889Z,36.30
2022-12-16T14:38:41.449Z,30.60
2022-12-16T14:41:30.262Z,35.22
2022-12-16T14:44:15.804Z,31.58
2022-12-16T14:47:09.028Z,37.90
2022-12-16T14:49:55.013Z,35.90
2022-12-16T14:52:41.780Z,36.90
2022-12-16T14:55:33.786Z,39.53
2022-12-16T14:58:24.708Z,44.90
2022-12-16T15:01:15.756Z,41.65
2022-12-16T15:04:04.886Z,44.55
2022-12-16T15:06:53.318Z,43.03
2022-12-16T15:09:47.064Z,45.65
2022-12-16T15:12:35.716Z,38.03
2022-12-16T15:15:23.995Z,44.25
2022-12-16T15:18:12.423Z,49.70
2022-12-16T15:21:06.944Z,43.08
2022-12-16T15:24:07.904Z,50.47
2022-12-16T15:26:53.825Z,41.17
2022-12-16T15:29:52.910Z,55.28
2022-12-16T15:32:49.261Z,46.30
2022-12-16T15:35:49.132Z,45.45
2022-12-16T15:38:46.450Z,44.20
2022-12-16T15:41:40.619Z,49.83
2022-12-16T15:44:34.161Z,46.03
2022-12-16T15:47:19.653Z,44.25
2022-12-16T15:50:07.431Z,43.42
2022-12-16T15:52:56.632Z,54.70
2022-12-16T15:55:47.666Z,43.50
2022-12-16T15:58:34.855Z,50.53
2022-12-16T16:01:20.537Z,45.05
2022-12-16T16:04:11.006Z,46.53
2022-12-16T16:06:56.942Z,54.83
2022-12-16T16:09:44.202Z,52.00
2022-12-16T16:12:32.387Z,48.13
2022-12-16T16:15:17.749Z,50.70
2022-12-16T16:18:04.720Z,41.47
2022-12-16T16:20:50.311Z,43.78
2022-12-16T16:23:36.084Z,44.95
2022-12-16T16:26:21.877Z,47.47
2022-12-16T16:29:08.516Z,48.85
2022-12-16T16:31:55.491Z,57.55
2022-12-16T16:34:42.529Z,43.13
2022-12-16T16:37:32.913Z,42.35
2022-12-16T16:40:19.531Z,43.88
2022-12-16T16:43:04.949Z,53.10
2022-12-16T16:45:51.928Z,46.00
2022-12-16T16:48:37.626Z,48.85
2022-12-16T16:51:23.680Z,45.65
2022-12-16T16:54:09.213Z,42.13
2022-12-16T16:56:56.597Z,41.42
2022-12-16T16:59:42.533Z,47.35
2022-12-16T17:02:40.562Z,42.83
2022-12-16T17:05:29.685Z,51.17
2022-12-16T17:08:16.207Z,42.30
2022-12-16T17:11:01.848Z,39.97
2022-12-16T17:13:47.495Z,38.58
2022-12-16T17:16:33.668Z,51.70
2022-12-16T17:19:21.587Z,42.92
2022-12-16T17:22:07.099Z,43.95
2022-12-16T17:24:55.003Z,48.17
2022-12-16T17:27:42.476Z,40.80
2022-12-16T17:30:33.996Z,45.67
2022-12-16T17:33:19.218Z,50.22
2022-12-16T17:36:09.046Z,50.78
2022-12-16T17:38:58.278Z,47.70
2022-12-16T17:41:43.816Z,56.50
2022-12-16T17:44:29.368Z,55.38
2022-12-16T17:47:14.788Z,55.95
2022-12-16T17:50:00.399Z,51.65
2022-12-16T17:52:47.080Z,55.28
2022-12-16T17:55:33.118Z,48.05
2022-12-16T17:58:18.590Z,49.90
2022-12-16T18:01:04.066Z,52.53
2022-12-16T18:04:04.117Z,51.35
2022-12-16T18:06:49.591Z,54.47
2022-12-16T18:09:36.224Z,62.63
2022-12-16T18:12:21.770Z,56.10
2022-12-16T18:15:07.468Z,45.80
2022-12-16T18:17:52.949Z,53.28
2022-12-16T18:20:38.663Z,57.05
2022-12-16T18:23:24.374Z,45.38
2022-12-16T18:26:18.633Z,52.70
2022-12-16T18:29:12.568Z,47.58
2022-12-16T18:32:01.778Z,62.42
2022-12-16T18:34:47.227Z,43.63
2022-12-16T18:37:32.721Z,55.05
2022-12-16T18:40:18.224Z,48.10
2022-12-16T18:43:10.247Z,42.42
2022-12-16T18:45:55.948Z,57.15
2022-12-16T18:48:41.313Z,51.67
2022-12-16T18:51:26.641Z,45.83
2022-12-16T18:54:12.149Z,44.03
2022-12-16T18:56:57.806Z,45.67
2022-12-16T18:59:44.456Z,35.63
2022-12-16T19:02:30.638Z,47.85
2022-12-16T19:05:15.988Z,50.03
2022-12-16T19:08:01.677Z,48.45
2022-12-16T19:10:47.196Z,48.28
2022-12-16T19:13:33.180Z,53.70
2022-12-16T19:16:23.265Z,50.85
2022-12-16T19:19:09.143Z,52.67
2022-12-16T19:21:56.365Z,59.72
2022-12-16T19:24:42.554Z,50.63
2022-12-16T19:27:27.942Z,54.47
2022-12-16T19:30:13.557Z,53.63
2022-12-16T19:33:00.251Z,51.47
2022-12-16T19:35:45.868Z,50.22
2022-12-16T19:38:31.497Z,58.05
2022-12-16T19:44:17.313Z,52.88
2022-12-16T19:47:02.889Z,67.60
2022-12-16T19:49:49.638Z,62.78
2022-12-16T19:52:35.167Z,51.67
2022-12-16T19:55:20.799Z,65.28
2022-12-16T19:58:06.229Z,54.63
2022-12-16T20:00:51.641Z,60.05
2022-12-16T20:03:38.069Z,49.65
2022-12-16T20:06:27.090Z,44.13
2022-12-16T20:09:14.786Z,53.25
2022-12-16T20:12:01.396Z,58.30
2022-12-16T20:14:47.399Z,50.50
2022-12-16T20:17:32.789Z,48.67
2022-12-16T20:20:18.415Z,58.65
2022-12-16T20:23:05.255Z,52.83
2022-12-16T20:25:50.775Z,50.95
2022-12-16T20:28:37.340Z,60.30
2022-12-16T20:31:23.281Z,56.20
2022-12-16T20:34:11.876Z,71.60
2022-12-16T20:36:57.418Z,65.03
2022-12-16T20:39:49.487Z,60.80
2022-12-16T20:42:38.370Z,56.72
2022-12-16T20:45:24.302Z,63.20
2022-12-16T20:48:11.523Z,53.95
2022-12-16T20:50:56.998Z,52.58
2022-12-16T20:53:42.989Z,56.38
2022-12-16T20:56:29.911Z,50.70
2022-12-16T20:59:15.445Z,51.38
2022-12-16T21:05:06.487Z,49.72
2022-12-16T21:07:52.862Z,47.35
2022-12-16T21:10:38.903Z,41.95
2022-12-16T21:13:26.774Z,46.85
2022-12-16T21:14:42.734Z,50.67
2022-12-16T21:16:12.182Z,44.83
2022-12-16T21:18:57.696Z,51.38
2022-12-16T21:21:43.087Z,44.80
2022-12-16T21:24:28.802Z,57.15
2022-12-16T21:27:14.421Z,45.83
2022-12-16T21:30:01.095Z,41.50
2022-12-16T21:32:46.586Z,47.42
2022-12-16T21:35:28.608Z,42.08
2022-12-16T21:38:14.163Z,45.40
2022-12-16T21:40:59.632Z,47.15
2022-12-16T21:43:45.176Z,57.13
2022-12-16T21:46:31.855Z,52.67
2022-12-16T21:49:20.722Z,43.05
2022-12-16T21:52:06.332Z,38.78
2022-12-16T21:54:51.950Z,42.38
2022-12-16T21:57:37.365Z,41.42
2022-12-16T22:00:24.470Z,42.00
2022-12-16T22:03:13.796Z,48.58
2022-12-16T22:06:04.521Z,59.17
2022-12-16T22:08:50.157Z,68.25
2022-12-16T22:11:35.744Z,66.25
2022-12-16T22:14:21.289Z,62.75
2022-12-16T22:17:06.670Z,87.30
2022-12-16T22:19:53.365Z,69.82
2022-12-16T22:22:41.937Z,69.57
2022-12-16T22:25:42.415Z,82.35
2022-12-16T22:28:27.979Z,82.53
2022-12-16T22:31:16.092Z,64.35
2022-12-16T22:34:01.958Z,74.47
2022-12-16T22:36:48.666Z,82.65
2022-12-16T22:39:34.131Z,78.93
2022-12-16T22:42:19.691Z,79.20
2022-12-16T22:45:05.248Z,77.47
2022-12-16T22:47:50.614Z,76.88
2022-12-16T22:50:37.106Z,68.63
2022-12-16T22:53:23.998Z,72.75
2022-12-16T22:56:09.961Z,74.00
2022-12-16T22:58:55.576Z,82.93
2022-12-16T23:01:41.528Z,88.72
2022-12-16T23:04:27.539Z,88.03
2022-12-16T23:07:13.342Z,68.97
2022-12-16T23:10:11.513Z,75.90
2022-12-16T23:12:57.138Z,69.93
2022-12-16T23:15:42.577Z,72.03
2022-12-16T23:18:28.286Z,67.45
2022-12-16T23:21:13.790Z,71.07
2022-12-16T23:23:59.327Z,65.28
2022-12-16T23:26:46.288Z,63.70
2022-12-16T23:29:31.811Z,67.63
2022-12-16T23:32:17.523Z,72.28
2022-12-16T23:35:03.047Z,73.05
2022-12-16T23:37:48.575Z,77.15
2022-12-16T23:40:34.253Z,69.15
2022-12-16T23:43:21.122Z,67.25
2022-12-16T23:46:06.738Z,73.38
2022-12-16T23:48:52.068Z,64.35
2022-12-16T23:51:37.566Z,61.92
2022-12-16T23:54:23.423Z,60.92
2022-12-16T23:57:09.050Z,75.55
2022-12-16T23:59:56.673Z,63.17
